| time (UTC) | temp F | wind direction | speed MPH | gust MPH | rain 1hr in | rain 24hr in | rain mn in | humidity % | barometer mb |
| 20260505200831 | 75 | 281 | 4.0 | 7.0 | 0.00 | 0.00 | 0.00 | 45 | 1015.0 |
| 20260505200331 | 75 | 190 | 4.0 | 9.0 | 0.00 | 0.00 | 0.00 | 46 | 1015.0 |
| 20260505195830 | 75 | 192 | 3.0 | 9.0 | 0.00 | 0.00 | 0.00 | 46 | 1015.0 |
| 20260505195331 | 74 | 205 | 3.0 | 9.0 | 0.00 | 0.00 | 0.00 | 49 | 1015.0 |
| 20260505195052 | 74 | 172 | 3.0 | 8.0 | 0.00 | 0.00 | 0.00 | 46 | 1015.0 |
| 20260505194558 | 74 | 240 | 3.0 | 9.0 | 0.00 | 0.00 | 0.00 | 49 | 1015.0 |
| 20260505193831 | 74 | 233 | 3.0 | 9.0 | 0.00 | 0.00 | 0.00 | 45 | 1015.2 |
| 20260505193331 | 74 | 3 | 3.0 | 5.0 | 0.00 | 0.00 | 0.00 | 47 | 1015.2 |
| 20260505192831 | 74 | 273 | 4.0 | 10.0 | 0.00 | 0.00 | 0.00 | 47 | 1015.2 |
| 20260505192331 | 74 | 333 | 4.0 | 11.0 | 0.00 | 0.00 | 0.00 | 45 | 1015.6 |
| 20260505191831 | 74 | 195 | 4.0 | 11.0 | 0.00 | 0.00 | 0.00 | 45 | 1015.6 |
| 20260505191548 | 74 | 192 | 4.0 | 8.0 | 0.00 | 0.00 | 0.00 | 48 | 1015.6 |
| 20260505190831 | 74 | 208 | 5.0 | 7.0 | 0.00 | 0.00 | 0.00 | 48 | 1015.8 |
| 20260505190330 | 74 | 278 | 5.0 | 9.0 | 0.00 | 0.00 | 0.00 | 48 | 1015.8 |
| 20260505185829 | 74 | 281 | 4.0 | 11.0 | 0.00 | 0.00 | 0.00 | 45 | 1015.8 |
| 20260505185326 | 74 | 195 | 4.0 | 11.0 | 0.00 | 0.00 | 0.00 | 46 | 1016.1 |
| 20260505184826 | 74 | 209 | 4.0 | 11.0 | 0.00 | 0.00 | 0.00 | 46 | 1016.1 |
| 20260505184553 | 74 | 190 | 4.0 | 9.0 | 0.00 | 0.00 | 0.00 | 46 | 1016.1 |
| 20260505183826 | 74 | 174 | 4.0 | 9.0 | 0.00 | 0.00 | 0.00 | 46 | 1016.1 |
| 20260505183325 | 74 | 220 | 4.0 | 8.0 | 0.00 | 0.00 | 0.00 | 48 | 1016.1 |
| 20260505182825 | 74 | 245 | 4.0 | 8.0 | 0.00 | 0.00 | 0.00 | 48 | 1016.1 |
| 20260505182551 | 74 | 6 | 4.0 | 8.0 | 0.00 | 0.00 | 0.00 | 47 | 1016.5 |
| 20260505181826 | 74 | 275 | 6.0 | 8.0 | 0.00 | 0.00 | 0.00 | 45 | 1016.5 |
| 20260505181324 | 74 | 216 | 6.0 | 14.0 | 0.00 | 0.00 | 0.00 | 45 | 1016.5 |
| 20260505180823 | 74 | 190 | 6.0 | 14.0 | 0.00 | 0.00 | 0.00 | 44 | 1016.6 |
| 20260505180322 | 74 | 186 | 6.0 | 13.0 | 0.00 | 0.00 | 0.00 | 45 | 1016.6 |
| 20260505175822 | 73 | 206 | 6.0 | 15.0 | 0.00 | 0.00 | 0.00 | 48 | 1016.6 |
| 20260505175321 | 74 | 264 | 6.0 | 15.0 | 0.00 | 0.00 | 0.00 | 45 | 1016.7 |
| 20260505174821 | 74 | 198 | 5.0 | 12.0 | 0.00 | 0.00 | 0.00 | 44 | 1016.7 |
| 20260505174321 | 73 | 206 | 5.0 | 13.0 | 0.00 | 0.00 | 0.00 | 45 | 1016.7 |
| 20260505174041 | 74 | 230 | 5.0 | 13.0 | 0.00 | 0.00 | 0.00 | 46 | 1017.1 |
| 20260505173321 | 74 | 176 | 5.0 | 11.0 | 0.00 | 0.00 | 0.00 | 44 | 1017.1 |
| 20260505172821 | 73 | 270 | 5.0 | 11.0 | 0.00 | 0.00 | 0.00 | 44 | 1017.1 |
| 20260505172321 | 73 | 267 | 5.0 | 15.0 | 0.00 | 0.00 | 0.00 | 45 | 1017.4 |
| 20260505172041 | 73 | 190 | 5.0 | 15.0 | 0.00 | 0.00 | 0.00 | 45 | 1017.4 |
| 20260505171321 | 73 | 217 | 5.0 | 13.0 | 0.00 | 0.00 | 0.00 | 49 | 1017.4 |
| 20260505170820 | 73 | 267 | 5.0 | 13.0 | 0.00 | 0.00 | 0.00 | 47 | 1017.5 |
| 20260505170318 | 73 | 212 | 5.0 | 12.0 | 0.00 | 0.00 | 0.00 | 46 | 1017.5 |
| 20260505165819 | 73 | 283 | 5.0 | 12.0 | 0.00 | 0.00 | 0.00 | 46 | 1017.5 |
| 20260505165318 | 73 | 175 | 5.0 | 11.0 | 0.00 | 0.00 | 0.00 | 48 | 1017.4 |
| 20260505164818 | 72 | 23 | 6.0 | 15.0 | 0.00 | 0.00 | 0.00 | 48 | 1017.4 |
| 20260505164318 | 72 | 269 | 6.0 | 15.0 | 0.00 | 0.00 | 0.00 | 49 | 1017.4 |
| 20260505163818 | 71 | 185 | 5.0 | 12.0 | 0.00 | 0.00 | 0.00 | 46 | 1017.4 |
| 20260505163318 | 72 | 284 | 5.0 | 12.0 | 0.00 | 0.00 | 0.00 | 46 | 1017.4 |
| 20260505163043 | 72 | 253 | 5.0 | 10.0 | 0.00 | 0.00 | 0.00 | 48 | 1017.4 |
| 20260505162318 | 72 | 193 | 5.0 | 10.0 | 0.00 | 0.00 | 0.00 | 48 | 1017.5 |
| 20260505162040 | 72 | 188 | 6.0 | 12.0 | 0.00 | 0.00 | 0.00 | 47 | 1017.5 |
| 20260505161535 | 72 | 164 | 6.0 | 13.0 | 0.00 | 0.00 | 0.00 | 45 | 1017.5 |
| 20260505160819 | 72 | 237 | 4.0 | 13.0 | 0.00 | 0.00 | 0.00 | 46 | 1017.7 |
| 20260505160318 | 72 | 204 | 4.0 | 12.0 | 0.00 | 0.00 | 0.00 | 47 | 1017.7 |
| 20260505153318 | 70 | 193 | 5.0 | 10.0 | 0.00 | 0.00 | 0.00 | 50 | 1017.9 |
| 20260505152819 | 70 | 249 | 5.0 | 12.0 | 0.00 | 0.00 | 0.00 | 53 | 1017.9 |
| 20260505152316 | 70 | 198 | 5.0 | 12.0 | 0.00 | 0.00 | 0.00 | 52 | 1018.1 |
| 20260505152036 | 69 | 212 | 4.0 | 11.0 | 0.00 | 0.00 | 0.00 | 52 | 1018.1 |
| 20260505151316 | 69 | 269 | 4.0 | 9.0 | 0.00 | 0.00 | 0.00 | 54 | 1018.1 |
| 20260505150815 | 69 | 199 | 3.0 | 8.0 | 0.00 | 0.00 | 0.00 | 56 | 1018.0 |
| 20260505150316 | 68 | 186 | 3.0 | 10.0 | 0.00 | 0.00 | 0.00 | 57 | 1018.0 |
| 20260505140511 | 62 | 206 | 1.0 | 2.0 | 0.00 | 0.02 | 0.00 | 72 | 1018.1 |
| 20260505124551 | 55 | 16 | 1.0 | 4.0 | 0.00 | 0.02 | 0.00 | 87 | 1017.8 |
| 20260505124051 | 55 | 16 | 1.0 | 4.0 | 0.00 | 0.02 | 0.00 | 87 | 1017.8 |
| 20260505123548 | 54 | 16 | 1.0 | 4.0 | 0.00 | 0.02 | 0.00 | 88 | 1017.8 |
| 20260505123310 | 54 | 12 | 1.0 | 4.0 | 0.00 | 0.02 | 0.00 | 89 | 1017.8 |
| 20260505122546 | 53 | 12 | 2.0 | 4.0 | 0.00 | 0.02 | 0.00 | 89 | 1017.7 |
| 20260505122043 | 53 | 12 | 2.0 | 3.0 | 0.00 | 0.02 | 0.00 | 91 | 1017.7 |
| 20260505121535 | 53 | 12 | 0.0 | 3.0 | 0.00 | 0.02 | 0.00 | 90 | 1017.7 |
| 20260505121032 | 53 | 12 | 0.0 | 1.0 | 0.00 | 0.02 | 0.00 | 91 | 1017.6 |
| 20260505120516 | 52 | 12 | 0.0 | 4.0 | 0.00 | 0.02 | 0.00 | 92 | 1017.6 |
| 20260505120013 | 52 | 11 | 0.0 | 4.0 | 0.00 | 0.02 | 0.00 | 93 | 1017.6 |
| 20260505115734 | 52 | 3 | 0.0 | 3.0 | 0.00 | 0.02 | 0.00 | 93 | 1017.2 |
| 20260505115009 | 51 | 3 | 0.0 | 3.0 | 0.00 | 0.02 | 0.00 | 93 | 1017.2 |
| 20260505114948 | 51 | 3 | 0.0 | 2.0 | 0.00 | 0.02 | 0.00 | 94 | 1017.2 |
| 20260505113956 | 51 | 3 | 0.0 | 2.0 | 0.00 | 0.02 | 0.00 | 94 | 1017.2 |
| 20260505113440 | 51 | 3 | 1.0 | 2.0 | 0.00 | 0.02 | 0.00 | 94 | 1017.2 |
| 20260505112935 | 51 | 3 | 1.0 | 3.0 | 0.00 | 0.02 | 0.00 | 93 | 1017.2 |
| 20260505112407 | 50 | 3 | 1.0 | 4.0 | 0.00 | 0.02 | 0.00 | 94 | 1016.9 |
| 20260505111903 | 50 | 337 | 1.0 | 3.0 | 0.00 | 0.02 | 0.00 | 94 | 1016.9 |
| 20260505111401 | 50 | 356 | 2.0 | 4.0 | 0.00 | 0.02 | 0.00 | 94 | 1016.9 |
| 20260505111117 | 50 | 8 | 2.0 | 4.0 | 0.00 | 0.02 | 0.00 | 93 | 1016.7 |
| 20260505110359 | 50 | 11 | 2.0 | 4.0 | 0.00 | 0.02 | 0.00 | 93 | 1016.7 |
| 20260505101801 | 51 | 13 | 0.0 | 3.0 | 0.00 | 0.02 | 0.00 | 91 | 1016.9 |
| 20260505101514 | 51 | 13 | 0.0 | 0.0 | 0.00 | 0.02 | 0.00 | 90 | 1016.9 |
| 20260505100725 | 51 | 13 | 2.0 | 2.0 | 0.00 | 0.02 | 0.00 | 89 | 1016.9 |
| 20260505100201 | 51 | 13 | 2.0 | 3.0 | 0.00 | 0.02 | 0.00 | 89 | 1016.9 |
| 20260505095658 | 52 | 13 | 2.0 | 4.0 | 0.00 | 0.02 | 0.00 | 88 | 1016.9 |
| 20260505095155 | 52 | 13 | 2.0 | 4.0 | 0.00 | 0.02 | 0.00 | 89 | 1016.8 |
| 20260505094915 | 52 | 13 | 3.0 | 4.0 | 0.00 | 0.02 | 0.00 | 89 | 1016.8 |
| 20260505094153 | 52 | 322 | 3.0 | 5.0 | 0.00 | 0.02 | 0.00 | 87 | 1016.8 |
| 20260505093907 | 53 | 5 | 3.0 | 5.0 | 0.00 | 0.02 | 0.00 | 87 | 1016.9 |
| 20260505093143 | 53 | 355 | 3.0 | 5.0 | 0.00 | 0.02 | 0.00 | 87 | 1016.9 |
| 20260505092641 | 53 | 2 | 2.0 | 4.0 | 0.00 | 0.02 | 0.00 | 88 | 1016.7 |
| 20260505092140 | 53 | 4 | 2.0 | 4.0 | 0.00 | 0.02 | 0.00 | 87 | 1016.7 |
| 20260505091640 | 53 | 3 | 2.0 | 4.0 | 0.00 | 0.02 | 0.00 | 87 | 1016.7 |
| 20260505091140 | 53 | 13 | 2.0 | 4.0 | 0.00 | 0.02 | 0.00 | 88 | 1016.7 |
| 20260505090627 | 52 | 4 | 0.0 | 4.0 | 0.00 | 0.02 | 0.00 | 88 | 1016.7 |
| 20260505090125 | 52 | 352 | 0.0 | 4.0 | 0.00 | 0.02 | 0.00 | 89 | 1016.7 |
| 20260505085625 | 52 | 352 | 0.0 | 2.0 | 0.00 | 0.02 | 0.00 | 87 | 1016.7 |
| 20260505085125 | 52 | 352 | 0.0 | 0.0 | 0.00 | 0.02 | 0.00 | 87 | 1016.7 |
| 20260505084611 | 52 | 352 | 0.0 | 0.0 | 0.00 | 0.02 | 0.00 | 86 | 1016.7 |
| 20260505084110 | 53 | 352 | 0.0 | 0.0 | 0.00 | 0.02 | 0.00 | 85 | 1016.6 |
| 20260505083556 | 53 | 352 | 0.0 | 0.0 | 0.00 | 0.02 | 0.00 | 84 | 1016.6 |
| 20260505083039 | 53 | 352 | 0.0 | 0.0 | 0.00 | 0.02 | 0.00 | 82 | 1016.6 |
| 20260505082530 | 54 | 352 | 1.0 | 2.0 | 0.00 | 0.02 | 0.00 | 81 | 1016.5 |
| 20260505082027 | 54 | 352 | 1.0 | 3.0 | 0.00 | 0.02 | 0.00 | 80 | 1016.5 |
| 20260505081525 | 55 | 352 | 1.0 | 3.0 | 0.00 | 0.02 | 0.00 | 79 | 1016.5 |
| 20260505081015 | 56 | 352 | 1.0 | 3.0 | 0.00 | 0.02 | 0.00 | 78 | 1016.2 |
| 20260505080511 | 56 | 352 | 2.0 | 3.0 | 0.00 | 0.02 | 0.00 | 78 | 1016.2 |
| 20260505080002 | 56 | 352 | 2.0 | 4.0 | 0.00 | 0.02 | 0.00 | 78 | 1016.2 |
| 20260505075502 | 56 | 352 | 1.0 | 4.0 | 0.00 | 0.02 | 0.00 | 78 | 1015.9 |
| 20260505075004 | 56 | 352 | 1.0 | 3.0 | 0.00 | 0.02 | 0.00 | 78 | 1015.9 |
| 20260505074951 | 56 | 352 | 0.0 | 0.0 | 0.00 | 0.02 | 0.00 | 79 | 1015.9 |
| 20260505073959 | 56 | 352 | 0.0 | 0.0 | 0.00 | 0.02 | 0.00 | 80 | 1015.9 |
| 20260505073440 | 55 | 352 | 0.0 | 0.0 | 0.00 | 0.02 | 0.00 | 80 | 1015.9 |
| 20260505073159 | 55 | 352 | 0.0 | 0.0 | 0.00 | 0.02 | 0.00 | 81 | 1015.9 |
| 20260505072921 | 55 | 352 | 0.0 | 0.0 | 0.00 | 0.02 | 0.00 | 80 | 1016.1 |
| 20260505071929 | 55 | 352 | 0.0 | 0.0 | 0.00 | 0.02 | 0.00 | 78 | 1016.1 |
| 20260505071430 | 56 | 352 | 0.0 | 0.0 | 0.00 | 0.02 | 0.00 | 77 | 1016.1 |
| 20260505070901 | 56 | 352 | 0.0 | 0.0 | 0.00 | 0.02 | 0.00 | 76 | 1016.1 |
| 20260505070347 | 56 | 352 | 0.0 | 0.0 | 0.00 | 0.02 | 0.00 | 75 | 1016.1 |
| 20260505065850 | 56 | 352 | 0.0 | 0.0 | 0.00 | 0.02 | 0.00 | 74 | 1016.1 |
| 20260505065330 | 56 | 352 | 0.0 | 0.0 | 0.00 | 0.02 | 0.00 | 74 | 1015.8 |
| 20260505064827 | 57 | 352 | 0.0 | 0.0 | 0.00 | 0.02 | 0.00 | 74 | 1015.8 |
| 20260505064743 | 57 | 352 | 0.0 | 0.0 | 0.00 | 0.02 | 0.00 | 74 | 1015.8 |
| 20260505063725 | 57 | 352 | 0.0 | 0.0 | 0.00 | 0.02 | 0.00 | 73 | 1015.7 |
| 20260505063201 | 57 | 352 | 0.0 | 0.0 | 0.00 | 0.02 | 0.00 | 73 | 1015.7 |
| 20260505062704 | 58 | 352 | 2.0 | 2.0 | 0.00 | 0.02 | 0.00 | 72 | 1015.7 |
| 20260505062120 | 58 | 352 | 2.0 | 2.0 | 0.00 | 0.02 | 0.00 | 72 | 1015.7 |
| 20260505061620 | 58 | 352 | 0.0 | 3.0 | 0.00 | 0.02 | 0.00 | 71 | 1015.7 |
| 20260505061119 | 58 | 352 | 0.0 | 3.0 | 0.00 | 0.02 | 0.00 | 71 | 1015.6 |
| 20260505060841 | 58 | 352 | 2.0 | 3.0 | 0.00 | 0.02 | 0.00 | 70 | 1015.6 |
| 20260505060100 | 59 | 352 | 2.0 | 4.0 | 0.00 | 0.02 | 0.00 | 69 | 1015.6 |
| 20260505055545 | 59 | 352 | 0.0 | 4.0 | 0.00 | 0.02 | 0.00 | 68 | 1015.6 |
| 20260505055525 | 59 | 246 | 0.0 | 2.0 | 0.00 | 0.02 | 0.00 | 68 | 1015.6 |
| 20260505054533 | 60 | 247 | 0.0 | 2.0 | 0.00 | 0.02 | 0.00 | 67 | 1015.6 |
| 20260505054012 | 60 | 246 | 0.0 | 2.0 | 0.00 | 0.02 | 0.00 | 66 | 1015.6 |
| 20260505053449 | 60 | 247 | 1.0 | 2.0 | 0.00 | 0.02 | 0.00 | 65 | 1015.6 |
| 20260505052943 | 60 | 246 | 1.0 | 2.0 | 0.00 | 0.02 | 0.00 | 65 | 1015.6 |
| 20260505052435 | 60 | 246 | 2.0 | 3.0 | 0.00 | 0.02 | 0.00 | 65 | 1015.7 |
| 20260505051933 | 60 | 247 | 2.0 | 3.0 | 0.00 | 0.02 | 0.00 | 65 | 1015.7 |
| 20260505051649 | 60 | 247 | 2.0 | 4.0 | 0.00 | 0.02 | 0.00 | 65 | 1015.7 |
| 20260505050930 | 60 | 264 | 2.0 | 4.0 | 0.00 | 0.02 | 0.00 | 65 | 1015.6 |
| 20260505050429 | 60 | 255 | 0.0 | 4.0 | 0.00 | 0.02 | 0.00 | 65 | 1015.6 |
| 20260505041531 | 63 | 212 | 3.0 | 8.0 | 0.00 | 0.02 | 0.00 | 58 | 1015.2 |
| 20260505040810 | 63 | 192 | 2.0 | 8.0 | 0.00 | 0.02 | 0.00 | 59 | 1015.1 |
| 20260505040309 | 63 | 217 | 2.0 | 5.0 | 0.00 | 0.02 | 0.00 | 59 | 1015.1 |
| 20260505035810 | 63 | 257 | 2.0 | 5.0 | 0.00 | 0.02 | 0.02 | 59 | 1015.1 |
| 20260505035745 | 63 | 258 | 2.0 | 4.0 | 0.00 | 0.02 | 0.02 | 59 | 1015.1 |
| 20260505034800 | 62 | 268 | 2.0 | 4.0 | 0.00 | 0.02 | 0.02 | 59 | 1015.1 |
| 20260505034257 | 62 | 240 | 2.0 | 3.0 | 0.00 | 0.02 | 0.02 | 60 | 1015.1 |
| 20260505034019 | 63 | 198 | 2.0 | 4.0 | 0.00 | 0.02 | 0.02 | 59 | 1015.2 |
| 20260505033228 | 62 | 184 | 2.0 | 4.0 | 0.00 | 0.02 | 0.02 | 59 | 1015.2 |
| 20260505032727 | 62 | 225 | 2.0 | 4.0 | 0.00 | 0.02 | 0.02 | 60 | 1015.2 |
| 20260505032227 | 63 | 225 | 2.0 | 4.0 | 0.00 | 0.02 | 0.02 | 59 | 1015.3 |
| 20260505031728 | 63 | 228 | 2.0 | 3.0 | 0.00 | 0.02 | 0.02 | 59 | 1015.3 |
| 20260505031444 | 63 | 228 | 2.0 | 5.0 | 0.00 | 0.02 | 0.02 | 59 | 1015.3 |
| 20260505030722 | 63 | 228 | 2.0 | 5.0 | 0.00 | 0.02 | 0.02 | 59 | 1015.4 |
| 20260505030217 | 63 | 224 | 2.0 | 3.0 | 0.00 | 0.02 | 0.02 | 59 | 1015.4 |
| 20260505025717 | 63 | 224 | 2.0 | 3.0 | 0.00 | 0.02 | 0.02 | 59 | 1015.4 |
| 20260505025217 | 63 | 224 | 2.0 | 3.0 | 0.00 | 0.02 | 0.02 | 59 | 1015.4 |
| 20260505024716 | 63 | 224 | 2.0 | 3.0 | 0.00 | 0.02 | 0.02 | 59 | 1015.4 |
| 20260505024207 | 63 | 224 | 2.0 | 3.0 | 0.00 | 0.02 | 0.02 | 59 | 1015.4 |
| 20260505023649 | 64 | 224 | 2.0 | 3.0 | 0.00 | 0.02 | 0.02 | 58 | 1015.4 |
| 20260505023142 | 64 | 223 | 2.0 | 3.0 | 0.00 | 0.02 | 0.02 | 58 | 1015.4 |
| 20260505022641 | 64 | 223 | 2.0 | 3.0 | 0.00 | 0.02 | 0.02 | 58 | 1015.4 |
| 20260505022137 | 64 | 223 | 2.0 | 2.0 | 0.00 | 0.02 | 0.02 | 57 | 1015.4 |
| 20260505021635 | 64 | 223 | 2.0 | 3.0 | 0.00 | 0.02 | 0.02 | 57 | 1015.4 |
| 20260505021132 | 65 | 223 | 2.0 | 3.0 | 0.00 | 0.02 | 0.02 | 57 | 1015.3 |
| 20260505020629 | 65 | 219 | 0.0 | 3.0 | 0.00 | 0.02 | 0.02 | 56 | 1015.3 |
| 20260505020128 | 65 | 218 | 0.0 | 2.0 | 0.00 | 0.02 | 0.02 | 56 | 1015.3 |
| 20260505015858 | 65 | 207 | 0.0 | 2.0 | 0.00 | 0.02 | 0.02 | 56 | 1015.2 |
| 20260505015341 | 66 | 206 | 0.0 | 1.0 | 0.00 | 0.02 | 0.02 | 55 | 1015.2 |
| 20260505014621 | 66 | 207 | 0.0 | 1.0 | 0.00 | 0.02 | 0.02 | 54 | 1015.2 |
| 20260505014120 | 66 | 206 | 0.0 | 2.0 | 0.00 | 0.02 | 0.02 | 54 | 1015.1 |
| 20260505013838 | 66 | 206 | 0.0 | 2.0 | 0.00 | 0.02 | 0.02 | 54 | 1015.1 |
| 20260505013117 | 67 | 206 | 0.0 | 0.0 | 0.00 | 0.02 | 0.02 | 53 | 1015.1 |
| 20260505013057 | 67 | 207 | 0.0 | 0.0 | 0.00 | 0.02 | 0.02 | 53 | 1015.0 |
| 20260505012114 | 67 | 206 | 0.0 | 2.0 | 0.00 | 0.02 | 0.02 | 52 | 1015.0 |
| 20260505011609 | 67 | 207 | 1.0 | 3.0 | 0.00 | 0.02 | 0.02 | 52 | 1015.0 |
| 20260505011336 | 68 | 206 | 1.0 | 3.0 | 0.00 | 0.02 | 0.02 | 51 | 1014.9 |
| 20260505010543 | 68 | 206 | 0.0 | 2.0 | 0.00 | 0.02 | 0.02 | 51 | 1014.9 |
| 20260505010027 | 68 | 206 | 0.0 | 0.0 | 0.00 | 0.02 | 0.02 | 50 | 1014.9 |
| 20260505005515 | 69 | 206 | 1.0 | 1.0 | 0.00 | 0.02 | 0.02 | 49 | 1014.8 |
| 20260505004935 | 69 | 206 | 1.0 | 3.0 | 0.00 | 0.02 | 0.02 | 49 | 1014.8 |
| 20260505004413 | 69 | 206 | 2.0 | 4.0 | 0.00 | 0.02 | 0.02 | 48 | 1014.8 |
| 20260505004138 | 69 | 208 | 2.0 | 5.0 | 0.00 | 0.02 | 0.02 | 48 | 1014.7 |
| 20260505003402 | 69 | 206 | 3.0 | 5.0 | 0.00 | 0.02 | 0.02 | 47 | 1014.7 |
| 20260505002902 | 69 | 256 | 3.0 | 6.0 | 0.00 | 0.02 | 0.02 | 47 | 1014.7 |
| 20260505002402 | 70 | 267 | 3.0 | 6.0 | 0.00 | 0.02 | 0.02 | 47 | 1014.6 |
| 20260505001902 | 70 | 270 | 3.0 | 6.0 | 0.00 | 0.02 | 0.02 | 46 | 1014.6 |
| 20260505001400 | 71 | 260 | 3.0 | 6.0 | 0.00 | 0.02 | 0.02 | 45 | 1014.6 |
| 20260505000856 | 71 | 270 | 3.0 | 6.0 | 0.00 | 0.02 | 0.02 | 46 | 1014.6 |
| 20260505000355 | 72 | 203 | 2.0 | 6.0 | 0.00 | 0.02 | 0.02 | 45 | 1014.6 |
| 20260504235854 | 73 | 244 | 2.0 | 5.0 | 0.00 | 0.02 | 0.02 | 45 | 1014.6 |
| 20260504235355 | 73 | 185 | 3.0 | 5.0 | 0.00 | 0.02 | 0.02 | 44 | 1014.5 |
| 20260504235115 | 74 | 193 | 3.0 | 5.0 | 0.00 | 0.02 | 0.02 | 44 | 1014.5 |
| 20260504234843 | 75 | 239 | 3.0 | 7.0 | 0.00 | 0.02 | 0.02 | 43 | 1014.5 |
| 20260504233855 | 75 | 261 | 3.0 | 7.0 | 0.00 | 0.02 | 0.02 | 42 | 1014.5 |
| 20260504233355 | 76 | 266 | 3.0 | 6.0 | 0.00 | 0.02 | 0.02 | 42 | 1014.5 |
| 20260504232852 | 76 | 183 | 3.0 | 6.0 | 0.00 | 0.02 | 0.02 | 41 | 1014.5 |
| 20260504232352 | 76 | 229 | 3.0 | 6.0 | 0.00 | 0.02 | 0.02 | 42 | 1014.5 |
| 20260504232110 | 76 | 293 | 3.0 | 7.0 | 0.00 | 0.02 | 0.02 | 44 | 1014.5 |
| 20260504231353 | 76 | 225 | 3.0 | 7.0 | 0.00 | 0.02 | 0.02 | 41 | 1014.5 |
| 20260504231105 | 76 | 277 | 3.0 | 6.0 | 0.00 | 0.02 | 0.02 | 43 | 1014.6 |
| 20260504230949 | 76 | 191 | 3.0 | 7.0 | 0.00 | 0.02 | 0.02 | 41 | 1014.6 |
| 20260504225852 | 76 | 205 | 3.0 | 6.0 | 0.00 | 0.02 | 0.02 | 42 | 1014.6 |
| 20260504225352 | 76 | 205 | 3.0 | 5.0 | 0.00 | 0.02 | 0.02 | 43 | 1014.7 |
| 20260504224849 | 76 | 181 | 4.0 | 7.0 | 0.00 | 0.02 | 0.02 | 43 | 1014.7 |
| 20260504224350 | 76 | 282 | 4.0 | 8.0 | 0.00 | 0.02 | 0.02 | 41 | 1014.7 |
| 20260504224112 | 77 | 252 | 4.0 | 8.0 | 0.00 | 0.02 | 0.02 | 41 | 1014.7 |
| 20260504223352 | 77 | 239 | 4.0 | 10.0 | 0.00 | 0.02 | 0.02 | 42 | 1014.7 |
| 20260504222853 | 76 | 277 | 4.0 | 10.0 | 0.00 | 0.02 | 0.02 | 41 | 1014.7 |
| 20260504222352 | 77 | 228 | 4.0 | 9.0 | 0.00 | 0.02 | 0.02 | 42 | 1014.7 |
| 20260504221851 | 76 | 249 | 4.0 | 9.0 | 0.00 | 0.02 | 0.02 | 42 | 1014.7 |
| 20260504221604 | 77 | 201 | 4.0 | 7.0 | 0.00 | 0.02 | 0.02 | 41 | 1014.7 |
| 20260504220845 | 77 | 222 | 4.0 | 7.0 | 0.00 | 0.02 | 0.02 | 43 | 1014.7 |
| 20260504220606 | 76 | 198 | 4.0 | 6.0 | 0.00 | 0.02 | 0.02 | 43 | 1014.7 |
| 20260504215845 | 76 | 196 | 3.0 | 9.0 | 0.00 | 0.02 | 0.02 | 42 | 1014.7 |
| 20260504215340 | 76 | 194 | 3.0 | 9.0 | 0.00 | 0.02 | 0.02 | 42 | 1014.8 |
| 20260504214839 | 76 | 238 | 2.0 | 8.0 | 0.00 | 0.02 | 0.02 | 42 | 1014.8 |
| 20260504214340 | 76 | 264 | 2.0 | 8.0 | 0.00 | 0.02 | 0.02 | 44 | 1014.8 |
| 20260504213837 | 77 | 220 | 3.0 | 4.0 | 0.00 | 0.02 | 0.02 | 43 | 1014.9 |
| 20260504213335 | 77 | 183 | 3.0 | 6.0 | 0.00 | 0.02 | 0.02 | 42 | 1014.9 |
| 20260504212838 | 77 | 179 | 4.0 | 6.0 | 0.00 | 0.02 | 0.02 | 41 | 1014.9 |
| 20260504212329 | 77 | 189 | 4.0 | 6.0 | 0.00 | 0.02 | 0.02 | 43 | 1015.0 |
| 20260504211830 | 77 | 181 | 4.0 | 9.0 | 0.00 | 0.02 | 0.02 | 41 | 1015.0 |
| 20260504211329 | 76 | 229 | 4.0 | 9.0 | 0.00 | 0.02 | 0.02 | 43 | 1015.0 |
| 20260504210830 | 76 | 213 | 4.0 | 8.0 | 0.00 | 0.02 | 0.02 | 44 | 1015.1 |
| 20260504210329 | 76 | 203 | 4.0 | 9.0 | 0.00 | 0.02 | 0.02 | 44 | 1015.1 |
| 20260504205829 | 76 | 203 | 4.0 | 9.0 | 0.00 | 0.02 | 0.02 | 43 | 1015.1 |
| 20260504205329 | 76 | 230 | 4.0 | 9.0 | 0.00 | 0.02 | 0.02 | 43 | 1015.4 |
| 20260504204830 | 76 | 192 | 3.0 | 9.0 | 0.00 | 0.02 | 0.02 | 43 | 1015.4 |
| 20260504204549 | 76 | 264 | 3.0 | 9.0 | 0.00 | 0.02 | 0.02 | 43 | 1015.4 |
| 20260504203829 | 76 | 183 | 3.0 | 6.0 | 0.00 | 0.02 | 0.02 | 45 | 1015.5 |
| 20260504203330 | 76 | 181 | 3.0 | 6.0 | 0.00 | 0.02 | 0.02 | 46 | 1015.5 |
| 20260504202829 | 75 | 211 | 4.0 | 8.0 | 0.00 | 0.02 | 0.02 | 45 | 1015.5 |
| 20260504202327 | 75 | 230 | 4.0 | 8.0 | 0.00 | 0.02 | 0.02 | 47 | 1015.7 |
| 20260504201827 | 75 | 271 | 3.0 | 11.0 | 0.00 | 0.02 | 0.02 | 48 | 1015.7 |
| 20260504201327 | 75 | 133 | 3.0 | 11.0 | 0.00 | 0.02 | 0.02 | 45 | 1015.7 |